Terminal Aerodrome Forecast
Issued by NWS Boston, MA

Home | Current Version | Previous Version | Text Only | Print | Product List | Glossary On
Versions: 1 2 3 4 5 6 7 8 9 10 11 12 13 14 15 16 17 18 19 20 21 22 23 24 25 26 27 28 29 30 31 32 33 34 35 36
000
FTUS41 KBOX 291120
TAFORH
TAF
KORH 291120Z 2912/3012 34008KT P6SM SKC
     FM291700 04004KT P6SM SCT060
     FM292200 10004KT P6SM SCT060
     FM300200 16005KT P6SM SCT060=

USA.gov is the U.S. government's official web portal to all federal, state and local government web resources and services.